sensor_id;sensor_type;location;lat;lon;timestamp;temperature;humidity
77985;DHT22;67177;47.240;-1.546;2023-03-04T00:01:32;4.70;66.40
77985;DHT22;67177;47.240;-1.546;2023-03-04T00:03:58;4.70;66.50
77985;DHT22;67177;47.240;-1.546;2023-03-04T00:06:23;4.70;66.50
77985;DHT22;67177;47.240;-1.546;2023-03-04T00:08:49;4.70;66.50
77985;DHT22;67177;47.240;-1.546;2023-03-04T00:11:15;4.70;66.40
77985;DHT22;67177;47.240;-1.546;2023-03-04T00:13:40;4.60;66.40
77985;DHT22;67177;47.240;-1.546;2023-03-04T00:16:06;4.60;66.40
77985;DHT22;67177;47.240;-1.546;2023-03-04T00:18:32;4.60;66.40
77985;DHT22;67177;47.240;-1.546;2023-03-04T00:20:57;4.50;66.60
77985;DHT22;67177;47.240;-1.546;2023-03-04T00:23:23;4.50;66.70
77985;DHT22;67177;47.240;-1.546;2023-03-04T00:25:49;4.50;66.70
77985;DHT22;67177;47.240;-1.546;2023-03-04T00:28:14;4.50;66.80
77985;DHT22;67177;47.240;-1.546;2023-03-04T00:30:40;4.50;66.80
77985;DHT22;67177;47.240;-1.546;2023-03-04T00:33:05;4.40;67.00
77985;DHT22;67177;47.240;-1.546;2023-03-04T00:35:31;4.40;67.10
77985;DHT22;67177;47.240;-1.546;2023-03-04T00:37:57;4.40;67.30
77985;DHT22;67177;47.240;-1.546;2023-03-04T00:40:22;4.40;67.40
77985;DHT22;67177;47.240;-1.546;2023-03-04T00:42:48;4.40;67.30
77985;DHT22;67177;47.240;-1.546;2023-03-04T00:45:14;4.40;67.50
77985;DHT22;67177;47.240;-1.546;2023-03-04T00:47:39;4.40;67.60
77985;DHT22;67177;47.240;-1.546;2023-03-04T00:50:05;4.40;67.70
77985;DHT22;67177;47.240;-1.546;2023-03-04T00:52:31;4.40;67.80
77985;DHT22;67177;47.240;-1.546;2023-03-04T00:54:57;4.30;67.90
77985;DHT22;67177;47.240;-1.546;2023-03-04T00:57:23;4.30;67.90
77985;DHT22;67177;47.240;-1.546;2023-03-04T00:59:48;4.30;67.80
77985;DHT22;67177;47.240;-1.546;2023-03-04T01:02:14;4.40;67.70
77985;DHT22;67177;47.240;-1.546;2023-03-04T01:04:40;4.40;67.70
77985;DHT22;67177;47.240;-1.546;2023-03-04T01:07:06;4.30;67.60
77985;DHT22;67177;47.240;-1.546;2023-03-04T01:09:32;4.30;67.60
77985;DHT22;67177;47.240;-1.546;2023-03-04T01:11:57;4.30;67.60
77985;DHT22;67177;47.240;-1.546;2023-03-04T01:14:23;4.30;67.60
77985;DHT22;67177;47.240;-1.546;2023-03-04T01:16:49;4.30;67.70
77985;DHT22;67177;47.240;-1.546;2023-03-04T01:19:15;4.30;67.70
77985;DHT22;67177;47.240;-1.546;2023-03-04T01:21:41;4.20;67.70
77985;DHT22;67177;47.240;-1.546;2023-03-04T01:24:07;4.20;67.60
77985;DHT22;67177;47.240;-1.546;2023-03-04T01:26:33;4.20;67.80
77985;DHT22;67177;47.240;-1.546;2023-03-04T01:28:58;4.10;67.80
77985;DHT22;67177;47.240;-1.546;2023-03-04T01:31:24;4.10;67.60
77985;DHT22;67177;47.240;-1.546;2023-03-04T01:33:50;4.10;67.50
77985;DHT22;67177;47.240;-1.546;2023-03-04T01:36:15;4.10;67.50
77985;DHT22;67177;47.240;-1.546;2023-03-04T01:38:41;4.10;67.50
77985;DHT22;67177;47.240;-1.546;2023-03-04T01:41:07;4.00;67.50
77985;DHT22;67177;47.240;-1.546;2023-03-04T01:43:34;4.00;67.50
77985;DHT22;67177;47.240;-1.546;2023-03-04T01:46:01;4.00;67.60
77985;DHT22;67177;47.240;-1.546;2023-03-04T01:48:30;3.90;67.70
77985;DHT22;67177;47.240;-1.546;2023-03-04T01:50:58;3.90;67.80
77985;DHT22;67177;47.240;-1.546;2023-03-04T01:53:28;3.90;67.90
77985;DHT22;67177;47.240;-1.546;2023-03-04T01:55:57;3.90;68.10
77985;DHT22;67177;47.240;-1.546;2023-03-04T01:58:28;3.90;68.10
77985;DHT22;67177;47.240;-1.546;2023-03-04T02:00:56;3.90;68.20
77985;DHT22;67177;47.240;-1.546;2023-03-04T02:03:22;3.90;68.00
77985;DHT22;67177;47.240;-1.546;2023-03-04T02:05:49;3.90;68.00
77985;DHT22;67177;47.240;-1.546;2023-03-04T02:08:18;3.80;68.00
77985;DHT22;67177;47.240;-1.546;2023-03-04T02:10:45;3.80;68.20
77985;DHT22;67177;47.240;-1.546;2023-03-04T02:13:12;3.70;68.30
77985;DHT22;67177;47.240;-1.546;2023-03-04T02:15:38;3.70;68.10
77985;DHT22;67177;47.240;-1.546;2023-03-04T02:18:18;3.70;68.00
77985;DHT22;67177;47.240;-1.546;2023-03-04T02:21:02;3.70;67.90
77985;DHT22;67177;47.240;-1.546;2023-03-04T02:26:21;3.70;67.90
77985;DHT22;67177;47.240;-1.546;2023-03-04T02:28:48;3.70;67.90
77985;DHT22;67177;47.240;-1.546;2023-03-04T02:31:37;3.60;68.00
77985;DHT22;67177;47.240;-1.546;2023-03-04T02:34:21;3.60;67.90
77985;DHT22;67177;47.240;-1.546;2023-03-04T02:36:49;3.60;67.90
77985;DHT22;67177;47.240;-1.546;2023-03-04T02:41:44;3.60;67.90
77985;DHT22;67177;47.240;-1.546;2023-03-04T02:44:31;3.60;67.90
77985;DHT22;67177;47.240;-1.546;2023-03-04T02:46:59;3.60;68.00
77985;DHT22;67177;47.240;-1.546;2023-03-04T02:49:28;3.60;68.00
77985;DHT22;67177;47.240;-1.546;2023-03-04T02:52:08;3.60;68.00
77985;DHT22;67177;47.240;-1.546;2023-03-04T02:54:34;3.50;68.00
77985;DHT22;67177;47.240;-1.546;2023-03-04T02:57:02;3.50;67.90
77985;DHT22;67177;47.240;-1.546;2023-03-04T02:59:28;3.50;68.00
77985;DHT22;67177;47.240;-1.546;2023-03-04T03:01:55;3.50;68.00
77985;DHT22;67177;47.240;-1.546;2023-03-04T03:04:21;3.50;68.00
77985;DHT22;67177;47.240;-1.546;2023-03-04T03:06:47;3.40;68.00
77985;DHT22;67177;47.240;-1.546;2023-03-04T03:09:13;3.40;68.20
77985;DHT22;67177;47.240;-1.546;2023-03-04T03:11:39;3.40;68.30
77985;DHT22;67177;47.240;-1.546;2023-03-04T03:14:06;3.30;68.30
77985;DHT22;67177;47.240;-1.546;2023-03-04T03:16:31;3.30;68.20
77985;DHT22;67177;47.240;-1.546;2023-03-04T03:18:57;3.20;68.20
77985;DHT22;67177;47.240;-1.546;2023-03-04T03:21:22;3.30;68.20
77985;DHT22;67177;47.240;-1.546;2023-03-04T03:23:48;3.20;68.10
77985;DHT22;67177;47.240;-1.546;2023-03-04T03:26:15;3.20;68.10
77985;DHT22;67177;47.240;-1.546;2023-03-04T03:28:41;3.20;68.10
77985;DHT22;67177;47.240;-1.546;2023-03-04T03:31:07;3.20;68.30
77985;DHT22;67177;47.240;-1.546;2023-03-04T03:33:32;3.20;68.30
77985;DHT22;67177;47.240;-1.546;2023-03-04T03:35:58;3.20;68.30
77985;DHT22;67177;47.240;-1.546;2023-03-04T03:38:24;3.20;68.40
77985;DHT22;67177;47.240;-1.546;2023-03-04T03:40:50;3.20;68.30
77985;DHT22;67177;47.240;-1.546;2023-03-04T03:43:16;3.20;68.40
77985;DHT22;67177;47.240;-1.546;2023-03-04T03:45:42;3.10;68.60
77985;DHT22;67177;47.240;-1.546;2023-03-04T03:48:07;3.10;68.60
77985;DHT22;67177;47.240;-1.546;2023-03-04T03:50:33;3.10;68.50
77985;DHT22;67177;47.240;-1.546;2023-03-04T03:52:59;3.10;68.60
77985;DHT22;67177;47.240;-1.546;2023-03-04T03:55:25;3.10;68.30
77985;DHT22;67177;47.240;-1.546;2023-03-04T03:57:51;3.10;68.20
77985;DHT22;67177;47.240;-1.546;2023-03-04T04:00:17;3.10;68.20
77985;DHT22;67177;47.240;-1.546;2023-03-04T04:02:42;3.00;68.20
77985;DHT22;67177;47.240;-1.546;2023-03-04T04:05:09;3.00;68.30
77985;DHT22;67177;47.240;-1.546;2023-03-04T04:07:35;3.00;68.40
77985;DHT22;67177;47.240;-1.546;2023-03-04T04:10:00;3.00;68.40
77985;DHT22;67177;47.240;-1.546;2023-03-04T04:12:26;3.00;68.40
77985;DHT22;67177;47.240;-1.546;2023-03-04T04:14:52;3.00;68.40
77985;DHT22;67177;47.240;-1.546;2023-03-04T04:17:17;3.00;68.40
77985;DHT22;67177;47.240;-1.546;2023-03-04T04:19:43;3.00;68.20
77985;DHT22;67177;47.240;-1.546;2023-03-04T04:22:17;3.00;68.30
77985;DHT22;67177;47.240;-1.546;2023-03-04T04:24:43;3.00;68.40
77985;DHT22;67177;47.240;-1.546;2023-03-04T04:27:08;2.90;68.60
77985;DHT22;67177;47.240;-1.546;2023-03-04T04:29:34;2.90;68.80
77985;DHT22;67177;47.240;-1.546;2023-03-04T04:32:00;2.90;69.00
77985;DHT22;67177;47.240;-1.546;2023-03-04T04:34:26;2.80;68.90
77985;DHT22;67177;47.240;-1.546;2023-03-04T04:36:52;2.80;68.80
77985;DHT22;67177;47.240;-1.546;2023-03-04T04:39:18;2.80;68.60
77985;DHT22;67177;47.240;-1.546;2023-03-04T04:41:44;2.80;68.70
77985;DHT22;67177;47.240;-1.546;2023-03-04T04:44:11;2.80;68.70
77985;DHT22;67177;47.240;-1.546;2023-03-04T04:46:38;2.80;68.80
77985;DHT22;67177;47.240;-1.546;2023-03-04T04:49:04;2.70;69.10
77985;DHT22;67177;47.240;-1.546;2023-03-04T04:51:31;2.70;69.30
77985;DHT22;67177;47.240;-1.546;2023-03-04T04:53:58;2.70;69.30
77985;DHT22;67177;47.240;-1.546;2023-03-04T04:56:24;2.70;69.20
77985;DHT22;67177;47.240;-1.546;2023-03-04T04:58:52;2.80;69.00
77985;DHT22;67177;47.240;-1.546;2023-03-04T05:01:18;2.70;69.00
77985;DHT22;67177;47.240;-1.546;2023-03-04T05:03:44;2.70;69.10
77985;DHT22;67177;47.240;-1.546;2023-03-04T05:06:11;2.70;69.00
77985;DHT22;67177;47.240;-1.546;2023-03-04T05:08:38;2.80;69.10
77985;DHT22;67177;47.240;-1.546;2023-03-04T05:11:05;2.80;69.10
77985;DHT22;67177;47.240;-1.546;2023-03-04T05:13:31;2.80;69.00
77985;DHT22;67177;47.240;-1.546;2023-03-04T05:15:57;2.80;68.90
77985;DHT22;67177;47.240;-1.546;2023-03-04T05:18:24;2.70;69.00
77985;DHT22;67177;47.240;-1.546;2023-03-04T05:20:53;2.70;69.20
77985;DHT22;67177;47.240;-1.546;2023-03-04T05:23:19;2.70;69.10
77985;DHT22;67177;47.240;-1.546;2023-03-04T05:25:46;2.70;68.90
77985;DHT22;67177;47.240;-1.546;2023-03-04T05:28:11;2.70;69.10
77985;DHT22;67177;47.240;-1.546;2023-03-04T05:30:41;2.70;69.20
77985;DHT22;67177;47.240;-1.546;2023-03-04T05:33:08;2.70;69.10
77985;DHT22;67177;47.240;-1.546;2023-03-04T05:35:35;2.60;69.40
77985;DHT22;67177;47.240;-1.546;2023-03-04T05:38:02;2.60;69.40
77985;DHT22;67177;47.240;-1.546;2023-03-04T05:40:28;2.60;69.20
77985;DHT22;67177;47.240;-1.546;2023-03-04T05:42:54;2.60;69.30
77985;DHT22;67177;47.240;-1.546;2023-03-04T05:45:21;2.60;69.60
77985;DHT22;67177;47.240;-1.546;2023-03-04T05:47:47;2.50;69.60
77985;DHT22;67177;47.240;-1.546;2023-03-04T05:50:13;2.50;69.40
77985;DHT22;67177;47.240;-1.546;2023-03-04T05:52:38;2.60;69.20
77985;DHT22;67177;47.240;-1.546;2023-03-04T05:55:04;2.50;69.20
77985;DHT22;67177;47.240;-1.546;2023-03-04T05:57:30;2.50;69.20
77985;DHT22;67177;47.240;-1.546;2023-03-04T05:59:56;2.50;69.10
77985;DHT22;67177;47.240;-1.546;2023-03-04T06:02:21;2.50;69.00
77985;DHT22;67177;47.240;-1.546;2023-03-04T06:04:47;2.50;69.20
77985;DHT22;67177;47.240;-1.546;2023-03-04T06:07:12;2.50;69.40
77985;DHT22;67177;47.240;-1.546;2023-03-04T06:09:38;2.40;69.80
77985;DHT22;67177;47.240;-1.546;2023-03-04T06:12:04;2.40;70.10
77985;DHT22;67177;47.240;-1.546;2023-03-04T06:14:29;2.40;70.30
77985;DHT22;67177;47.240;-1.546;2023-03-04T06:16:55;2.30;70.30
77985;DHT22;67177;47.240;-1.546;2023-03-04T06:19:21;2.30;70.50
77985;DHT22;67177;47.240;-1.546;2023-03-04T06:21:46;2.30;70.50
77985;DHT22;67177;47.240;-1.546;2023-03-04T06:24:12;2.30;70.70
77985;DHT22;67177;47.240;-1.546;2023-03-04T06:26:37;2.30;70.60
77985;DHT22;67177;47.240;-1.546;2023-03-04T06:29:06;2.30;70.40
77985;DHT22;67177;47.240;-1.546;2023-03-04T06:31:32;2.30;70.20
77985;DHT22;67177;47.240;-1.546;2023-03-04T06:33:57;2.30;70.00
77985;DHT22;67177;47.240;-1.546;2023-03-04T06:36:23;2.30;70.00
77985;DHT22;67177;47.240;-1.546;2023-03-04T06:38:48;2.30;69.90
77985;DHT22;67177;47.240;-1.546;2023-03-04T06:41:15;2.30;69.70
77985;DHT22;67177;47.240;-1.546;2023-03-04T06:43:41;2.30;69.60
77985;DHT22;67177;47.240;-1.546;2023-03-04T06:46:07;2.30;69.70
77985;DHT22;67177;47.240;-1.546;2023-03-04T06:48:33;2.30;69.60
77985;DHT22;67177;47.240;-1.546;2023-03-04T06:51:04;2.40;69.60
77985;DHT22;67177;47.240;-1.546;2023-03-04T06:53:31;2.40;69.40
77985;DHT22;67177;47.240;-1.546;2023-03-04T06:55:56;2.40;69.40
77985;DHT22;67177;47.240;-1.546;2023-03-04T06:58:22;2.40;69.40
77985;DHT22;67177;47.240;-1.546;2023-03-04T07:00:47;2.30;69.50
77985;DHT22;67177;47.240;-1.546;2023-03-04T07:03:13;2.30;69.80
77985;DHT22;67177;47.240;-1.546;2023-03-04T07:05:39;2.30;70.10
77985;DHT22;67177;47.240;-1.546;2023-03-04T07:08:05;2.30;70.20
77985;DHT22;67177;47.240;-1.546;2023-03-04T07:10:32;2.30;70.10
77985;DHT22;67177;47.240;-1.546;2023-03-04T07:12:57;2.30;70.20
77985;DHT22;67177;47.240;-1.546;2023-03-04T07:15:23;2.30;70.30
77985;DHT22;67177;47.240;-1.546;2023-03-04T07:17:48;2.40;70.20
77985;DHT22;67177;47.240;-1.546;2023-03-04T07:20:14;2.40;70.20
77985;DHT22;67177;47.240;-1.546;2023-03-04T07:22:40;2.40;70.10
77985;DHT22;67177;47.240;-1.546;2023-03-04T07:25:06;2.40;70.20
77985;DHT22;67177;47.240;-1.546;2023-03-04T07:27:31;2.40;70.20
77985;DHT22;67177;47.240;-1.546;2023-03-04T07:29:57;2.40;70.30
77985;DHT22;67177;47.240;-1.546;2023-03-04T07:32:23;2.40;70.30
77985;DHT22;67177;47.240;-1.546;2023-03-04T07:34:49;2.40;70.30
77985;DHT22;67177;47.240;-1.546;2023-03-04T07:37:15;2.50;70.20
77985;DHT22;67177;47.240;-1.546;2023-03-04T07:39:40;2.40;70.10
77985;DHT22;67177;47.240;-1.546;2023-03-04T07:42:06;2.50;70.10
77985;DHT22;67177;47.240;-1.546;2023-03-04T07:44:32;2.50;70.30
77985;DHT22;67177;47.240;-1.546;2023-03-04T07:46:57;2.50;70.30
77985;DHT22;67177;47.240;-1.546;2023-03-04T07:49:23;2.60;70.50
77985;DHT22;67177;47.240;-1.546;2023-03-04T07:51:49;2.60;70.40
77985;DHT22;67177;47.240;-1.546;2023-03-04T07:54:14;2.60;70.20
77985;DHT22;67177;47.240;-1.546;2023-03-04T07:56:40;2.60;70.30
77985;DHT22;67177;47.240;-1.546;2023-03-04T07:59:06;2.70;70.20
77985;DHT22;67177;47.240;-1.546;2023-03-04T08:01:34;2.70;70.10
77985;DHT22;67177;47.240;-1.546;2023-03-04T08:04:01;2.80;70.00
77985;DHT22;67177;47.240;-1.546;2023-03-04T08:06:27;2.80;70.10
77985;DHT22;67177;47.240;-1.546;2023-03-04T08:08:59;2.90;70.10
77985;DHT22;67177;47.240;-1.546;2023-03-04T08:11:25;2.90;70.00
77985;DHT22;67177;47.240;-1.546;2023-03-04T08:13:51;2.90;69.80
77985;DHT22;67177;47.240;-1.546;2023-03-04T08:16:19;3.00;69.90
77985;DHT22;67177;47.240;-1.546;2023-03-04T08:18:47;3.00;69.90
77985;DHT22;67177;47.240;-1.546;2023-03-04T08:21:15;3.10;69.80
77985;DHT22;67177;47.240;-1.546;2023-03-04T08:23:41;3.10;69.80
77985;DHT22;67177;47.240;-1.546;2023-03-04T08:26:12;3.20;69.90
77985;DHT22;67177;47.240;-1.546;2023-03-04T08:28:39;3.20;69.90
77985;DHT22;67177;47.240;-1.546;2023-03-04T08:31:04;3.30;69.90
77985;DHT22;67177;47.240;-1.546;2023-03-04T08:33:31;3.30;69.70
77985;DHT22;67177;47.240;-1.546;2023-03-04T08:35:57;3.30;69.60
77985;DHT22;67177;47.240;-1.546;2023-03-04T08:38:23;3.40;69.50
77985;DHT22;67177;47.240;-1.546;2023-03-04T08:40:55;3.40;69.60
77985;DHT22;67177;47.240;-1.546;2023-03-04T08:43:21;3.50;69.60
77985;DHT22;67177;47.240;-1.546;2023-03-04T08:45:47;3.60;69.50
77985;DHT22;67177;47.240;-1.546;2023-03-04T08:48:13;3.60;69.30
77985;DHT22;67177;47.240;-1.546;2023-03-04T08:50:39;3.60;69.10
77985;DHT22;67177;47.240;-1.546;2023-03-04T08:53:05;3.60;69.00
77985;DHT22;67177;47.240;-1.546;2023-03-04T08:55:30;3.70;69.10
77985;DHT22;67177;47.240;-1.546;2023-03-04T08:57:56;3.70;69.00
77985;DHT22;67177;47.240;-1.546;2023-03-04T09:00:22;3.80;68.90
77985;DHT22;67177;47.240;-1.546;2023-03-04T09:02:48;3.90;69.00
77985;DHT22;67177;47.240;-1.546;2023-03-04T09:05:14;3.90;68.80
77985;DHT22;67177;47.240;-1.546;2023-03-04T09:07:40;4.00;68.80
77985;DHT22;67177;47.240;-1.546;2023-03-04T09:10:06;4.00;68.70
77985;DHT22;67177;47.240;-1.546;2023-03-04T09:12:31;4.00;68.60
77985;DHT22;67177;47.240;-1.546;2023-03-04T09:14:57;4.10;68.50
77985;DHT22;67177;47.240;-1.546;2023-03-04T09:17:23;4.20;68.40
77985;DHT22;67177;47.240;-1.546;2023-03-04T09:19:49;4.20;68.20
77985;DHT22;67177;47.240;-1.546;2023-03-04T09:22:15;4.20;68.00
77985;DHT22;67177;47.240;-1.546;2023-03-04T09:24:40;4.30;67.80
77985;DHT22;67177;47.240;-1.546;2023-03-04T09:27:07;4.30;67.80
77985;DHT22;67177;47.240;-1.546;2023-03-04T09:29:33;4.30;67.80
77985;DHT22;67177;47.240;-1.546;2023-03-04T09:31:59;4.40;67.70
77985;DHT22;67177;47.240;-1.546;2023-03-04T09:34:24;4.40;67.40
77985;DHT22;67177;47.240;-1.546;2023-03-04T09:36:50;4.50;67.50
77985;DHT22;67177;47.240;-1.546;2023-03-04T09:39:16;4.60;67.20
77985;DHT22;67177;47.240;-1.546;2023-03-04T09:41:53;4.70;67.00
77985;DHT22;67177;47.240;-1.546;2023-03-04T09:46:48;4.80;65.10
77985;DHT22;67177;47.240;-1.546;2023-03-04T09:49:14;4.80;65.10
77985;DHT22;67177;47.240;-1.546;2023-03-04T09:51:54;4.80;64.90
77985;DHT22;67177;47.240;-1.546;2023-03-04T09:55:37;4.80;65.00
77985;DHT22;67177;47.240;-1.546;2023-03-04T09:57:52;4.90;65.00
77985;DHT22;67177;47.240;-1.546;2023-03-04T10:00:25;5.00;65.20
77985;DHT22;67177;47.240;-1.546;2023-03-04T10:03:19;5.10;65.10
77985;DHT22;67177;47.240;-1.546;2023-03-04T10:08:25;5.30;64.70
77985;DHT22;67177;47.240;-1.546;2023-03-04T10:10:54;5.40;64.50
77985;DHT22;67177;47.240;-1.546;2023-03-04T10:13:50;5.50;64.10
77985;DHT22;67177;47.240;-1.546;2023-03-04T10:16:22;5.60;64.40
77985;DHT22;67177;47.240;-1.546;2023-03-04T10:18:54;5.80;64.10
77985;DHT22;67177;47.240;-1.546;2023-03-04T10:21:34;5.90;63.80
77985;DHT22;67177;47.240;-1.546;2023-03-04T10:24:11;6.00;63.40
77985;DHT22;67177;47.240;-1.546;2023-03-04T10:26:41;6.10;62.80
77985;DHT22;67177;47.240;-1.546;2023-03-04T10:29:16;6.10;63.00
77985;DHT22;67177;47.240;-1.546;2023-03-04T10:31:42;6.10;62.70
77985;DHT22;67177;47.240;-1.546;2023-03-04T10:34:13;6.10;62.70
77985;DHT22;67177;47.240;-1.546;2023-03-04T10:37:02;6.10;62.30
77985;DHT22;67177;47.240;-1.546;2023-03-04T10:39:31;6.20;62.60
77985;DHT22;67177;47.240;-1.546;2023-03-04T10:44:55;6.30;62.40
77985;DHT22;67177;47.240;-1.546;2023-03-04T10:47:26;6.40;62.30
77985;DHT22;67177;47.240;-1.546;2023-03-04T10:50:01;6.40;61.40
77985;DHT22;67177;47.240;-1.546;2023-03-04T10:52:28;6.40;60.80
77985;DHT22;67177;47.240;-1.546;2023-03-04T10:55:03;6.40;60.80
77985;DHT22;67177;47.240;-1.546;2023-03-04T10:57:38;6.50;61.20
77985;DHT22;67177;47.240;-1.546;2023-03-04T11:02:44;6.60;60.30
77985;DHT22;67177;47.240;-1.546;2023-03-04T11:05:20;6.60;60.30
77985;DHT22;67177;47.240;-1.546;2023-03-04T11:07:53;6.60;60.50
77985;DHT22;67177;47.240;-1.546;2023-03-04T11:10:39;6.70;60.60
77985;DHT22;67177;47.240;-1.546;2023-03-04T11:13:18;6.80;59.70
77985;DHT22;67177;47.240;-1.546;2023-03-04T11:15:56;6.80;59.10
77985;DHT22;67177;47.240;-1.546;2023-03-04T11:18:33;6.70;59.20
77985;DHT22;67177;47.240;-1.546;2023-03-04T11:21:02;6.80;59.50
77985;DHT22;67177;47.240;-1.546;2023-03-04T11:23:48;6.90;59.70
77985;DHT22;67177;47.240;-1.546;2023-03-04T11:26:25;7.00;59.70
77985;DHT22;67177;47.240;-1.546;2023-03-04T11:28:55;7.00;59.30
77985;DHT22;67177;47.240;-1.546;2023-03-04T11:31:37;7.10;59.00
77985;DHT22;67177;47.240;-1.546;2023-03-04T11:34:41;7.10;58.30
77985;DHT22;67177;47.240;-1.546;2023-03-04T11:45:07;7.30;58.00
77985;DHT22;67177;47.240;-1.546;2023-03-04T11:53:41;7.40;58.30
77985;DHT22;67177;47.240;-1.546;2023-03-04T11:58:46;7.60;57.70
77985;DHT22;67177;47.240;-1.546;2023-03-04T12:01:14;7.60;57.40
77985;DHT22;67177;47.240;-1.546;2023-03-04T12:03:57;7.60;57.50
77985;DHT22;67177;47.240;-1.546;2023-03-04T12:15:27;7.80;57.20
77985;DHT22;67177;47.240;-1.546;2023-03-04T12:31:40;7.90;56.60
77985;DHT22;67177;47.240;-1.546;2023-03-04T12:45:03;8.10;56.10
77985;DHT22;67177;47.240;-1.546;2023-03-04T12:47:44;8.10;56.10
77985;DHT22;67177;47.240;-1.546;2023-03-04T12:53:31;8.10;56.00
77985;DHT22;67177;47.240;-1.546;2023-03-04T12:55:58;8.10;55.90
77985;DHT22;67177;47.240;-1.546;2023-03-04T12:58:29;8.20;55.70
77985;DHT22;67177;47.240;-1.546;2023-03-04T13:01:17;8.20;55.50
77985;DHT22;67177;47.240;-1.546;2023-03-04T13:04:10;8.20;55.60
77985;DHT22;67177;47.240;-1.546;2023-03-04T13:09:38;8.30;55.70
77985;DHT22;67177;47.240;-1.546;2023-03-04T13:12:19;8.40;55.80
77985;DHT22;67177;47.240;-1.546;2023-03-04T13:20:37;8.60;55.60
77985;DHT22;67177;47.240;-1.546;2023-03-04T13:41:25;8.80;54.90
77985;DHT22;67177;47.240;-1.546;2023-03-04T13:44:05;8.80;54.80
77985;DHT22;67177;47.240;-1.546;2023-03-04T13:46:48;8.80;54.70
77985;DHT22;67177;47.240;-1.546;2023-03-04T13:49:21;8.90;54.60
77985;DHT22;67177;47.240;-1.546;2023-03-04T13:51:49;8.90;54.90
77985;DHT22;67177;47.240;-1.546;2023-03-04T13:56:51;8.90;54.70
77985;DHT22;67177;47.240;-1.546;2023-03-04T13:59:48;9.00;54.70
77985;DHT22;67177;47.240;-1.546;2023-03-04T14:02:20;8.90;54.10
77985;DHT22;67177;47.240;-1.546;2023-03-04T14:07:30;8.90;54.10
77985;DHT22;67177;47.240;-1.546;2023-03-04T14:09:59;8.90;53.80
77985;DHT22;67177;47.240;-1.546;2023-03-04T14:12:27;9.00;54.00
77985;DHT22;67177;47.240;-1.546;2023-03-04T14:14:58;9.00;53.90
77985;DHT22;67177;47.240;-1.546;2023-03-04T14:17:31;9.10;53.90
77985;DHT22;67177;47.240;-1.546;2023-03-04T14:19:58;9.10;54.10
77985;DHT22;67177;47.240;-1.546;2023-03-04T14:27:29;9.10;53.80
77985;DHT22;67177;47.240;-1.546;2023-03-04T14:29:59;9.10;53.10
77985;DHT22;67177;47.240;-1.546;2023-03-04T14:32:26;9.10;53.20
77985;DHT22;67177;47.240;-1.546;2023-03-04T14:35:05;9.10;53.10
77985;DHT22;67177;47.240;-1.546;2023-03-04T14:37:49;9.10;53.10
77985;DHT22;67177;47.240;-1.546;2023-03-04T14:40:23;9.10;53.00
77985;DHT22;67177;47.240;-1.546;2023-03-04T14:43:03;9.10;52.90
77985;DHT22;67177;47.240;-1.546;2023-03-04T14:45:30;9.10;52.90
77985;DHT22;67177;47.240;-1.546;2023-03-04T14:48:00;9.10;52.80
77985;DHT22;67177;47.240;-1.546;2023-03-04T14:50:28;9.10;52.90
77985;DHT22;67177;47.240;-1.546;2023-03-04T14:55:33;9.20;52.60
77985;DHT22;67177;47.240;-1.546;2023-03-04T14:58:07;9.20;52.80
77985;DHT22;67177;47.240;-1.546;2023-03-04T15:00:36;9.30;53.00
77985;DHT22;67177;47.240;-1.546;2023-03-04T15:03:15;9.30;53.00
77985;DHT22;67177;47.240;-1.546;2023-03-04T15:05:43;9.30;52.80
77985;DHT22;67177;47.240;-1.546;2023-03-04T15:08:25;9.30;52.70
77985;DHT22;67177;47.240;-1.546;2023-03-04T15:11:00;9.30;52.80
77985;DHT22;67177;47.240;-1.546;2023-03-04T15:13:43;9.30;52.60
77985;DHT22;67177;47.240;-1.546;2023-03-04T15:16:12;9.30;52.20
77985;DHT22;67177;47.240;-1.546;2023-03-04T15:18:52;9.30;52.00
77985;DHT22;67177;47.240;-1.546;2023-03-04T15:23:46;9.20;52.00
77985;DHT22;67177;47.240;-1.546;2023-03-04T15:26:12;9.20;52.20
77985;DHT22;67177;47.240;-1.546;2023-03-04T15:28:39;9.20;52.30
77985;DHT22;67177;47.240;-1.546;2023-03-04T15:31:20;9.20;51.90
77985;DHT22;67177;47.240;-1.546;2023-03-04T15:33:47;9.20;51.60
77985;DHT22;67177;47.240;-1.546;2023-03-04T15:36:15;9.20;51.60
77985;DHT22;67177;47.240;-1.546;2023-03-04T15:38:44;9.10;51.70
77985;DHT22;67177;47.240;-1.546;2023-03-04T15:41:17;9.10;51.60
77985;DHT22;67177;47.240;-1.546;2023-03-04T15:43:43;9.10;51.50
77985;DHT22;67177;47.240;-1.546;2023-03-04T15:46:10;9.10;51.80
77985;DHT22;67177;47.240;-1.546;2023-03-04T15:48:36;9.10;51.70
77985;DHT22;67177;47.240;-1.546;2023-03-04T15:51:02;9.10;51.70
77985;DHT22;67177;47.240;-1.546;2023-03-04T15:53:36;9.10;51.60
77985;DHT22;67177;47.240;-1.546;2023-03-04T15:56:06;9.00;51.50
77985;DHT22;67177;47.240;-1.546;2023-03-04T15:58:32;9.00;51.60
77985;DHT22;67177;47.240;-1.546;2023-03-04T16:00:58;9.00;51.50
77985;DHT22;67177;47.240;-1.546;2023-03-04T16:03:23;9.00;51.30
77985;DHT22;67177;47.240;-1.546;2023-03-04T16:05:50;8.90;51.40
77985;DHT22;67177;47.240;-1.546;2023-03-04T16:08:20;9.00;51.50
77985;DHT22;67177;47.240;-1.546;2023-03-04T16:10:47;8.90;51.50
77985;DHT22;67177;47.240;-1.546;2023-03-04T16:13:15;8.90;51.40
77985;DHT22;67177;47.240;-1.546;2023-03-04T16:15:41;8.90;51.20
77985;DHT22;67177;47.240;-1.546;2023-03-04T16:18:08;8.90;51.20
77985;DHT22;67177;47.240;-1.546;2023-03-04T16:20:35;8.90;51.20
77985;DHT22;67177;47.240;-1.546;2023-03-04T16:23:01;8.90;51.30
77985;DHT22;67177;47.240;-1.546;2023-03-04T16:25:28;8.90;51.40
77985;DHT22;67177;47.240;-1.546;2023-03-04T16:27:55;8.80;51.50
77985;DHT22;67177;47.240;-1.546;2023-03-04T16:30:25;8.80;51.60
77985;DHT22;67177;47.240;-1.546;2023-03-04T16:32:52;8.80;51.70
77985;DHT22;67177;47.240;-1.546;2023-03-04T16:35:19;8.80;51.60
77985;DHT22;67177;47.240;-1.546;2023-03-04T16:37:45;8.80;51.60
77985;DHT22;67177;47.240;-1.546;2023-03-04T16:40:13;8.80;51.60
77985;DHT22;67177;47.240;-1.546;2023-03-04T16:42:40;8.70;51.70
77985;DHT22;67177;47.240;-1.546;2023-03-04T16:45:16;8.70;51.90
77985;DHT22;67177;47.240;-1.546;2023-03-04T16:47:43;8.70;52.10
77985;DHT22;67177;47.240;-1.546;2023-03-04T16:50:17;8.70;52.20
77985;DHT22;67177;47.240;-1.546;2023-03-04T16:52:46;8.70;52.20
77985;DHT22;67177;47.240;-1.546;2023-03-04T16:55:25;8.60;52.40
77985;DHT22;67177;47.240;-1.546;2023-03-04T16:57:52;8.60;52.20
77985;DHT22;67177;47.240;-1.546;2023-03-04T17:00:20;8.50;52.30
77985;DHT22;67177;47.240;-1.546;2023-03-04T17:02:56;8.50;52.40
77985;DHT22;67177;47.240;-1.546;2023-03-04T17:05:25;8.50;52.50
77985;DHT22;67177;47.240;-1.546;2023-03-04T17:07:51;8.40;52.40
77985;DHT22;67177;47.240;-1.546;2023-03-04T17:10:18;8.40;52.50
77985;DHT22;67177;47.240;-1.546;2023-03-04T17:12:44;8.30;52.60
77985;DHT22;67177;47.240;-1.546;2023-03-04T17:15:11;8.30;52.70
77985;DHT22;67177;47.240;-1.546;2023-03-04T17:17:38;8.20;52.90
77985;DHT22;67177;47.240;-1.546;2023-03-04T17:20:05;8.20;53.00
77985;DHT22;67177;47.240;-1.546;2023-03-04T17:22:32;8.10;53.20
77985;DHT22;67177;47.240;-1.546;2023-03-04T17:24:58;8.10;53.30
77985;DHT22;67177;47.240;-1.546;2023-03-04T17:27:23;8.10;53.30
77985;DHT22;67177;47.240;-1.546;2023-03-04T17:29:49;8.00;53.40
77985;DHT22;67177;47.240;-1.546;2023-03-04T17:32:18;8.00;53.40